Station History

Weather Underground - logo

Station Historical Data
Daily Summary for August 29, 2017 Units:  English    Metric   Both
« Previous Day
Next Day »
Daily Weekly Monthly Yearly Custom
  High: Low: Average:
Temperature: 107.8 °F 76.3 °F 91.5 °F
Dew Point: 69.9 °F 58.5 °F 66.1 °F
Humidity: 75 % 21 % 47 %
Wind Speed: 6.9 mph 0.0 mph 1.1 mph
Wind Gust: 6.9 mph - -
Wind:- - WSW
Pressure: 29.78 in 29.65 in -
Precipitation: 0.00 in    
Historical Graphs
 
 
Tabular Data for August 29, 2017
Time Temperature Dew Point Pressure Wind Wind Speed Wind Gust Humidity Rainfall Rate (Hourly)
00:02 82.0 °F 67.2 °F 29.72 in SE 1.0 mph   61 % 0.00 in
00:07 82.6 °F 66.3 °F 29.72 in Calm     58 % 0.00 in
00:12 82.9 °F 66.6 °F 29.72 in Calm     58 % 0.00 in
00:17 82.8 °F 66.5 °F 29.72 in Calm     58 % 0.00 in
00:22 82.5 °F 67.2 °F 29.72 in Calm     60 % 0.00 in
00:27 82.0 °F 66.7 °F 29.72 in Calm     60 % 0.00 in
00:32 81.8 °F 66.6 °F 29.72 in Calm     60 % 0.00 in
00:37 81.7 °F 67.4 °F 29.72 in Calm     62 % 0.00 in
00:42 81.3 °F 68.0 °F 29.72 in Calm     64 % 0.00 in
00:47 80.8 °F 67.5 °F 29.72 in Calm     64 % 0.00 in
00:52 80.4 °F 67.6 °F 29.72 in Calm     65 % 0.00 in
00:57 80.1 °F 67.7 °F 29.72 in Calm     66 % 0.00 in
01:02 79.7 °F 67.8 °F 29.72 in Calm     67 % 0.00 in
01:07 79.5 °F 67.6 °F 29.72 in Calm     67 % 0.00 in
01:12 79.2 °F 67.3 °F 29.72 in Calm     67 % 0.00 in
01:17 79.2 °F 67.3 °F 29.72 in Calm     67 % 0.00 in
01:22 79.4 °F 67.0 °F 29.72 in Calm     66 % 0.00 in
01:27 79.4 °F 67.9 °F 29.72 in Calm     68 % 0.00 in
01:32 79.5 °F 68.4 °F 29.72 in Calm     69 % 0.00 in
01:37 79.4 °F 67.5 °F 29.72 in Calm     67 % 0.00 in
01:42 79.7 °F 66.4 °F 29.72 in Calm     64 % 0.00 in
01:47 80.3 °F 66.6 °F 29.72 in Calm     63 % 0.00 in
01:52 80.6 °F 65.9 °F 29.72 in Calm     61 % 0.00 in
01:57 80.8 °F 66.1 °F 29.72 in Calm     61 % 0.00 in
02:02 80.8 °F 66.1 °F 29.72 in Calm     61 % 0.00 in
02:07 80.7 °F 66.5 °F 29.72 in Calm     62 % 0.00 in
02:12 80.5 °F 66.7 °F 29.72 in Calm     63 % 0.00 in
02:17 80.2 °F 67.4 °F 29.72 in Calm     65 % 0.00 in
02:22 79.7 °F 67.3 °F 29.72 in Calm     66 % 0.00 in
02:27 79.4 °F 68.3 °F 29.72 in Calm     69 % 0.00 in
02:32 79.0 °F 68.4 °F 29.72 in Calm     70 % 0.00 in
02:37 78.8 °F 68.2 °F 29.72 in Calm     70 % 0.00 in
02:42 78.9 °F 67.9 °F 29.72 in Calm     69 % 0.00 in
02:47 79.1 °F 68.1 °F 29.72 in Calm     69 % 0.00 in
02:52 79.2 °F 68.6 °F 29.72 in Calm     70 % 0.00 in
02:57 79.0 °F 68.0 °F 29.72 in Calm     69 % 0.00 in
03:02 78.9 °F 68.3 °F 29.72 in Calm     70 % 0.00 in
03:12 79.2 °F 68.1 °F 29.72 in Calm     69 % 0.00 in
03:17 79.2 °F 69.0 °F 29.72 in Calm     71 % 0.00 in
03:22 79.3 °F 67.8 °F 29.72 in Calm     68 % 0.00 in
03:27 79.4 °F 67.0 °F 29.72 in Calm     66 % 0.00 in
03:32 79.6 °F 68.5 °F 29.72 in Calm     69 % 0.00 in
03:37 79.4 °F 68.8 °F 29.72 in Calm     70 % 0.00 in
03:42 79.2 °F 69.8 °F 29.72 in Calm     73 % 0.00 in
03:48 78.8 °F 68.6 °F 29.72 in Calm     71 % 0.00 in
03:53 78.6 °F 68.8 °F 29.72 in Calm     72 % 0.00 in
03:58 78.6 °F 69.2 °F 29.72 in Calm     73 % 0.00 in
04:03 78.3 °F 69.7 °F 29.72 in Calm     75 % 0.00 in
04:08 78.1 °F 69.1 °F 29.71 in Calm     74 % 0.00 in
04:13 78.3 °F 68.9 °F 29.72 in Calm     73 % 0.00 in
04:18 78.4 °F 67.8 °F 29.72 in Calm     70 % 0.00 in
04:23 78.5 °F 67.5 °F 29.72 in Calm     69 % 0.00 in
04:28 78.4 °F 67.8 °F 29.72 in Calm     70 % 0.00 in
04:33 78.3 °F 68.5 °F 29.72 in Calm     72 % 0.00 in
04:38 78.2 °F 68.4 °F 29.72 in Calm     72 % 0.00 in
04:43 78.0 °F 68.2 °F 29.72 in Calm     72 % 0.00 in
04:48 77.8 °F 67.2 °F 29.72 in Calm     70 % 0.00 in
04:53 77.8 °F 68.0 °F 29.72 in Calm     72 % 0.00 in
04:58 77.7 °F 67.1 °F 29.72 in Calm     70 % 0.00 in
05:03 77.7 °F 68.0 °F 29.73 in Calm     72 % 0.00 in
05:08 77.5 °F 67.8 °F 29.73 in Calm     72 % 0.00 in
05:13 77.3 °F 68.0 °F 29.73 in Calm     73 % 0.00 in
05:18 77.0 °F 67.7 °F 29.73 in Calm     73 % 0.00 in
05:23 76.8 °F 66.7 °F 29.74 in SE 1.2 mph   71 % 0.00 in
05:28 76.8 °F 65.4 °F 29.74 in Calm     68 % 0.00 in
05:33 76.9 °F 65.5 °F 29.74 in Calm     68 % 0.00 in
05:38 76.9 °F 65.5 °F 29.74 in Calm     68 % 0.00 in
05:43 76.8 °F 65.4 °F 29.74 in Calm     68 % 0.00 in
05:48 76.8 °F 65.9 °F 29.74 in Calm     69 % 0.00 in
05:53 76.8 °F 65.9 °F 29.74 in SE 1.2 mph   69 % 0.00 in
05:58 76.8 °F 66.3 °F 29.74 in Calm     70 % 0.00 in
06:03 76.6 °F 66.5 °F 29.74 in SE 1.2 mph 1.2 mph 71 % 0.00 in
06:08 76.3 °F 66.2 °F 29.75 in Calm     71 % 0.00 in
06:13 76.3 °F 65.8 °F 29.75 in Calm     70 % 0.00 in
06:18 76.4 °F 65.5 °F 29.75 in Calm     69 % 0.00 in
06:23 76.5 °F 65.6 °F 29.76 in Calm     69 % 0.00 in
06:28 76.6 °F 65.2 °F 29.76 in Calm     68 % 0.00 in
06:33 76.7 °F 64.9 °F 29.76 in Calm   0.1 mph 67 % 0.00 in
06:38 76.9 °F 64.2 °F 29.76 in Calm     65 % 0.00 in
06:43 77.0 °F 64.3 °F 29.76 in Calm     65 % 0.00 in
06:48 76.9 °F 64.2 °F 29.76 in Calm     65 % 0.00 in
06:53 76.9 °F 66.0 °F 29.76 in Calm     69 % 0.00 in
06:58 76.7 °F 65.3 °F 29.76 in Calm     68 % 0.00 in
07:03 76.6 °F 64.8 °F 29.77 in Calm     67 % 0.00 in
07:08 76.9 °F 64.2 °F 29.77 in Calm     65 % 0.00 in
07:14 77.2 °F 65.0 °F 29.77 in Calm     66 % 0.00 in
07:19 77.4 °F 65.6 °F 29.77 in Calm     67 % 0.00 in
07:24 77.7 °F 63.6 °F 29.77 in Calm     62 % 0.00 in
07:29 78.3 °F 66.4 °F 29.77 in Calm     67 % 0.00 in
07:34 78.6 °F 65.8 °F 29.77 in Calm     65 % 0.00 in
07:39 79.3 °F 64.7 °F 29.77 in SE 1.2 mph   61 % 0.00 in
07:44 80.3 °F 65.1 °F 29.77 in Calm     60 % 0.00 in
07:49 81.3 °F 64.6 °F 29.77 in Calm     57 % 0.00 in
07:54 82.3 °F 65.5 °F 29.77 in Calm     57 % 0.00 in
07:59 83.2 °F 66.4 °F 29.77 in SE 1.2 mph   57 % 0.00 in
08:04 84.0 °F 67.1 °F 29.77 in Calm     57 % 0.00 in
08:09 84.7 °F 68.3 °F 29.78 in Calm     58 % 0.00 in
08:14 85.3 °F 67.3 °F 29.77 in Calm     55 % 0.00 in
08:19 85.7 °F 65.5 °F 29.77 in SE 1.2 mph   51 % 0.00 in
08:24 86.4 °F 65.6 °F 29.77 in Calm     50 % 0.00 in
08:29 87.1 °F 64.4 °F 29.78 in Calm     47 % 0.00 in
08:34 88.2 °F 64.2 °F 29.78 in Calm     45 % 0.00 in
08:39 90.0 °F 65.2 °F 29.78 in Calm     44 % 0.00 in
08:44 91.3 °F 63.6 °F 29.78 in Calm     40 % 0.00 in
08:49 92.2 °F 62.9 °F 29.78 in Calm     38 % 0.00 in
08:54 92.4 °F 63.1 °F 29.78 in SE 1.0 mph   38 % 0.00 in
08:59 91.7 °F 63.2 °F 29.78 in Calm     39 % 0.00 in
09:04 91.6 °F 62.4 °F 29.78 in Calm     38 % 0.00 in
09:09 91.4 °F 63.0 °F 29.78 in SE 1.2 mph 1.2 mph 39 % 0.00 in
09:14 91.7 °F 63.2 °F 29.78 in Calm     39 % 0.00 in
09:19 92.8 °F 64.9 °F 29.78 in Calm     40 % 0.00 in
09:24 93.8 °F 63.6 °F 29.78 in Calm   0.1 mph 37 % 0.00 in
09:29 93.9 °F 64.4 °F 29.78 in NE 1.2 mph   38 % 0.00 in
09:34 93.6 °F 63.4 °F 29.78 in NW 1.2 mph 1.2 mph 37 % 0.00 in
09:39 93.2 °F 63.8 °F 29.78 in Calm     38 % 0.00 in
09:44 93.1 °F 63.0 °F 29.78 in NW 1.2 mph 1.2 mph 37 % 0.00 in
09:49 93.4 °F 64.0 °F 29.78 in Calm   0.1 mph 38 % 0.00 in
09:54 94.2 °F 63.9 °F 29.78 in Calm     37 % 0.00 in
09:59 94.7 °F 65.1 °F 29.78 in West 1.2 mph   38 % 0.00 in
10:04 95.3 °F 64.9 °F 29.78 in North 1.0 mph   37 % 0.00 in
10:09 95.9 °F 63.8 °F 29.78 in Calm   0.4 mph 35 % 0.00 in
10:14 96.4 °F 65.1 °F 29.78 in Calm     36 % 0.00 in
10:19 96.5 °F 64.4 °F 29.78 in NNW 1.2 mph 1.2 mph 35 % 0.00 in
10:24 96.2 °F 63.3 °F 29.77 in NW 1.2 mph   34 % 0.00 in
10:29 96.5 °F 64.4 °F 29.77 in West 1.2 mph   35 % 0.00 in
10:34 97.0 °F 64.8 °F 29.77 in NW 1.2 mph   35 % 0.00 in
10:39 97.5 °F 66.1 °F 29.77 in Calm     36 % 0.00 in
10:44 98.1 °F 64.9 °F 29.77 in Calm     34 % 0.00 in
10:49 98.3 °F 65.9 °F 29.77 in Calm     35 % 0.00 in
10:55 98.9 °F 65.6 °F 29.77 in North 1.2 mph 1.2 mph 34 % 0.00 in
11:00 99.3 °F 66.8 °F 29.77 in ESE 1.2 mph 1.2 mph 35 % 0.00 in
11:05 99.9 °F 67.3 °F 29.77 in WNW 1.2 mph 1.2 mph 35 % 0.00 in
11:10 99.8 °F 67.3 °F 29.76 in NNE 3.5 mph 3.5 mph 35 % 0.00 in
11:15 100.2 °F 67.6 °F 29.76 in West 2.3 mph 2.3 mph 35 % 0.00 in
11:20 100.5 °F 67.9 °F 29.76 in SE 1.2 mph 1.2 mph 35 % 0.00 in
11:25 100.7 °F 68.0 °F 29.76 in NNE 2.3 mph 2.3 mph 35 % 0.00 in
11:30 101.0 °F 67.5 °F 29.76 in WNW 1.2 mph 1.2 mph 34 % 0.00 in
11:35 101.0 °F 68.3 °F 29.76 in West 3.5 mph 3.5 mph 35 % 0.00 in
11:40 101.1 °F 68.4 °F 29.76 in WNW 2.3 mph 2.3 mph 35 % 0.00 in
11:45 101.2 °F 69.3 °F 29.76 in WNW 2.3 mph 2.3 mph 36 % 0.00 in
11:50 101.1 °F 68.4 °F 29.76 in SSE 1.2 mph   35 % 0.00 in
11:55 101.3 °F 69.4 °F 29.76 in North 1.2 mph 1.2 mph 36 % 0.00 in
12:00 101.7 °F 68.1 °F 29.75 in North 2.3 mph 2.3 mph 34 % 0.00 in
12:05 102.3 °F 69.4 °F 29.75 in WNW 1.2 mph 1.2 mph 35 % 0.00 in
12:10 102.2 °F 67.6 °F 29.75 in NW 2.3 mph 2.3 mph 33 % 0.00 in
12:15 102.1 °F 66.7 °F 29.75 in NW 3.5 mph 3.5 mph 32 % 0.00 in
12:20 102.2 °F 68.5 °F 29.75 in ESE 2.0 mph 2.0 mph 34 % 0.00 in
12:25 102.8 °F 68.2 °F 29.75 in NW 2.3 mph 2.3 mph 33 % 0.00 in
12:30 102.9 °F 68.3 °F 29.75 in WNW 1.2 mph 1.2 mph 33 % 0.00 in
12:40 103.2 °F 68.5 °F 29.74 in East 2.3 mph 2.3 mph 33 % 0.00 in
12:45 103.5 °F 66.0 °F 29.74 in NW 2.3 mph 2.3 mph 30 % 0.00 in
12:50 103.6 °F 65.1 °F 29.74 in North 3.5 mph 3.5 mph 29 % 0.00 in
12:55 103.8 °F 69.0 °F 29.74 in WNW 2.3 mph 2.3 mph 33 % 0.00 in
13:00 104.1 °F 65.5 °F 29.73 in NW 3.5 mph 3.5 mph 29 % 0.00 in
13:10 104.5 °F 64.9 °F 29.73 in WNW 1.2 mph 1.2 mph 28 % 0.00 in
13:15 104.8 °F 66.1 °F 29.73 in West 2.3 mph 2.3 mph 29 % 0.00 in
13:20 105.1 °F 64.3 °F 29.73 in NNE 2.3 mph 2.3 mph 27 % 0.00 in
13:25 105.2 °F 66.5 °F 29.72 in WSW 3.0 mph 3.0 mph 29 % 0.00 in
13:30 105.1 °F 68.3 °F 29.72 in WNW 2.3 mph 2.3 mph 31 % 0.00 in
13:35 105.0 °F 65.3 °F 29.72 in SSW 3.5 mph 3.5 mph 28 % 0.00 in
13:40 105.2 °F 67.5 °F 29.72 in NW 1.2 mph 1.2 mph 30 % 0.00 in
13:45 105.2 °F 64.4 °F 29.72 in East 3.5 mph 3.5 mph 27 % 0.00 in
13:50 105.4 °F 64.6 °F 29.72 in WSW 3.5 mph 3.5 mph 27 % 0.00 in
13:55 105.6 °F 65.8 °F 29.72 in NE 2.3 mph 2.3 mph 28 % 0.00 in
14:00 106.0 °F 67.2 °F 29.72 in ENE 2.3 mph 2.3 mph 29 % 0.00 in
14:05 106.2 °F 64.2 °F 29.71 in North 2.3 mph 2.3 mph 26 % 0.00 in
14:06 106.2 °F 64.2 °F 29.71 in NNE 1.2 mph 1.2 mph 26 % 0.00 in
14:11 106.6 °F 65.6 °F 29.71 in West 1.2 mph 1.2 mph 27 % 0.00 in
14:16 106.8 °F 66.8 °F 29.71 in NW 3.5 mph 3.5 mph 28 % 0.00 in
14:21 106.7 °F 64.6 °F 29.70 in West 3.5 mph 3.5 mph 26 % 0.00 in
14:26 106.6 °F 66.7 °F 29.70 in NNW 1.2 mph 1.2 mph 28 % 0.00 in
14:31 107.1 °F 66.0 °F 29.70 in NW 3.0 mph 3.0 mph 27 % 0.00 in
14:36 107.3 °F 64.0 °F 29.70 in NNW 2.3 mph 2.3 mph 25 % 0.00 in
14:41 107.6 °F 64.2 °F 29.70 in West 4.6 mph 4.6 mph 25 % 0.00 in
14:46 107.8 °F 64.4 °F 29.69 in NW 3.5 mph 3.5 mph 25 % 0.00 in
14:51 107.7 °F 66.5 °F 29.69 in NW 3.5 mph 3.5 mph 27 % 0.00 in
14:56 107.6 °F 63.1 °F 29.69 in NNW 3.5 mph 3.5 mph 24 % 0.00 in
15:01 107.7 °F 60.7 °F 29.68 in WNW 5.8 mph 5.8 mph 22 % 0.00 in
15:06 107.6 °F 60.6 °F 29.68 in NNW 5.8 mph 5.8 mph 22 % 0.00 in
15:11 107.3 °F 64.0 °F 29.68 in NW 3.0 mph 3.0 mph 25 % 0.00 in
15:16 107.0 °F 60.1 °F 29.68 in NW 3.5 mph 3.5 mph 22 % 0.00 in
15:21 106.8 °F 60.0 °F 29.68 in NNW 3.5 mph 3.5 mph 22 % 0.00 in
15:26 106.9 °F 60.0 °F 29.68 in NW 4.0 mph 4.0 mph 22 % 0.00 in
15:31 106.9 °F 61.3 °F 29.68 in NNW 3.5 mph 3.5 mph 23 % 0.00 in
15:36 106.7 °F 61.1 °F 29.68 in NW 6.9 mph 6.9 mph 23 % 0.00 in
15:41 106.7 °F 62.3 °F 29.67 in NW 4.0 mph 4.0 mph 24 % 0.00 in
15:46 106.7 °F 61.1 °F 29.67 in NW 4.6 mph 4.6 mph 23 % 0.00 in
15:51 106.7 °F 59.9 °F 29.67 in North 6.9 mph 6.9 mph 22 % 0.00 in
15:56 106.6 °F 59.8 °F 29.67 in WNW 3.5 mph 3.5 mph 22 % 0.00 in
16:01 106.5 °F 59.7 °F 29.67 in West 3.5 mph 3.5 mph 22 % 0.00 in
16:06 106.4 °F 59.6 °F 29.67 in WNW 4.6 mph 4.6 mph 22 % 0.00 in
16:11 106.4 °F 62.1 °F 29.67 in WNW 4.0 mph 4.0 mph 24 % 0.00 in
16:16 106.4 °F 62.1 °F 29.67 in NW 3.5 mph 3.5 mph 24 % 0.00 in
16:21 106.5 °F 62.2 °F 29.67 in NW 2.3 mph 2.3 mph 24 % 0.00 in
16:26 106.6 °F 62.2 °F 29.66 in NW 2.3 mph 2.3 mph 24 % 0.00 in
16:31 106.5 °F 63.3 °F 29.66 in NW 3.5 mph 3.5 mph 25 % 0.00 in
16:36 106.7 °F 58.6 °F 29.66 in NW 3.5 mph 3.5 mph 21 % 0.00 in
16:41 106.6 °F 58.5 °F 29.66 in WNW 4.0 mph 4.0 mph 21 % 0.00 in
16:46 106.7 °F 59.9 °F 29.66 in WNW 2.3 mph 2.3 mph 22 % 0.00 in
16:51 106.7 °F 58.6 °F 29.66 in NW 3.5 mph 3.5 mph 21 % 0.00 in
16:56 106.6 °F 61.0 °F 29.66 in WNW 2.3 mph 2.3 mph 23 % 0.00 in
17:01 106.6 °F 61.0 °F 29.66 in WNW 3.5 mph 3.5 mph 23 % 0.00 in
17:06 106.5 °F 62.2 °F 29.66 in NNW 2.3 mph 2.3 mph 24 % 0.00 in
17:11 106.4 °F 60.9 °F 29.65 in NW 3.5 mph 3.5 mph 23 % 0.00 in
17:16 106.2 °F 61.9 °F 29.65 in WNW 3.0 mph 3.0 mph 24 % 0.00 in
17:21 106.1 °F 61.8 °F 29.65 in West 5.0 mph 5.0 mph 24 % 0.00 in
17:26 106.1 °F 63.0 °F 29.65 in NW 3.5 mph 3.5 mph 25 % 0.00 in
17:31 106.0 °F 62.9 °F 29.65 in WNW 3.5 mph 3.5 mph 25 % 0.00 in
17:36 105.8 °F 63.9 °F 29.65 in NNW 3.5 mph 3.5 mph 26 % 0.00 in
17:41 105.6 °F 64.8 °F 29.65 in NNW 2.3 mph 2.3 mph 27 % 0.00 in
17:46 105.4 °F 63.5 °F 29.65 in WNW 3.5 mph 3.5 mph 26 % 0.00 in
17:56 105.2 °F 65.5 °F 29.65 in WNW 2.3 mph 2.3 mph 28 % 0.00 in
18:01 105.1 °F 65.4 °F 29.65 in NW 2.3 mph 2.3 mph 28 % 0.00 in
18:06 105.0 °F 65.3 °F 29.65 in NW 1.2 mph 1.2 mph 28 % 0.00 in
18:07 105.0 °F 64.3 °F 29.65 in NW 1.2 mph 1.2 mph 27 % 0.00 in
18:12 105.0 °F 65.3 °F 29.65 in WNW 2.3 mph 2.3 mph 28 % 0.00 in
18:17 104.7 °F 64.0 °F 29.65 in NNE 3.5 mph 3.5 mph 27 % 0.00 in
18:22 104.0 °F 64.5 °F 29.65 in NW 1.2 mph 1.2 mph 28 % 0.00 in
18:27 103.3 °F 65.8 °F 29.65 in WNW 1.2 mph 1.2 mph 30 % 0.00 in
18:32 102.7 °F 66.3 °F 29.65 in Calm     31 % 0.00 in
18:37 102.0 °F 66.6 °F 29.65 in Calm     32 % 0.00 in
18:42 101.4 °F 67.0 °F 29.65 in Calm     33 % 0.00 in
18:47 100.7 °F 66.3 °F 29.65 in WNW 1.2 mph 1.2 mph 33 % 0.00 in
18:52 100.2 °F 66.8 °F 29.65 in Calm     34 % 0.00 in
18:57 99.7 °F 66.3 °F 29.65 in Calm     34 % 0.00 in
19:02 99.1 °F 67.5 °F 29.65 in Calm     36 % 0.00 in
19:12 97.9 °F 67.2 °F 29.65 in Calm     37 % 0.00 in
19:13 97.8 °F 67.1 °F 29.65 in Calm     37 % 0.00 in
19:18 97.1 °F 69.5 °F 29.65 in Calm     41 % 0.00 in
19:23 95.9 °F 69.1 °F 29.65 in Calm     42 % 0.00 in
19:28 95.1 °F 69.8 °F 29.65 in Calm     44 % 0.00 in
19:33 94.4 °F 69.8 °F 29.65 in Calm     45 % 0.00 in
19:38 93.8 °F 69.9 °F 29.66 in Calm     46 % 0.00 in
19:43 93.3 °F 68.1 °F 29.66 in Calm     44 % 0.00 in
19:48 92.9 °F 67.8 °F 29.66 in Calm     44 % 0.00 in
19:53 92.9 °F 67.8 °F 29.66 in Calm     44 % 0.00 in
19:58 92.7 °F 67.6 °F 29.66 in Calm     44 % 0.00 in
20:03 92.6 °F 66.8 °F 29.66 in Calm     43 % 0.00 in
20:08 92.6 °F 67.5 °F 29.66 in Calm     44 % 0.00 in
20:13 92.6 °F 68.2 °F 29.67 in Calm     45 % 0.00 in
20:18 92.3 °F 69.8 °F 29.67 in Calm     48 % 0.00 in
20:23 91.5 °F 69.6 °F 29.67 in Calm     49 % 0.00 in
20:28 90.8 °F 69.0 °F 29.67 in Calm     49 % 0.00 in
20:33 90.5 °F 68.1 °F 29.67 in Calm     48 % 0.00 in
20:38 90.6 °F 68.2 °F 29.67 in Calm     48 % 0.00 in
20:43 91.0 °F 67.3 °F 29.67 in Calm     46 % 0.00 in
20:49 91.4 °F 67.7 °F 29.67 in Calm     46 % 0.00 in
20:54 91.4 °F 67.1 °F 29.68 in Calm     45 % 0.00 in
20:59 91.5 °F 67.2 °F 29.68 in NW 1.2 mph 1.2 mph 45 % 0.00 in
21:04 91.7 °F 67.3 °F 29.68 in Calm     45 % 0.00 in
21:09 91.6 °F 67.3 °F 29.68 in Calm     45 % 0.00 in
21:14 91.3 °F 67.6 °F 29.68 in Calm     46 % 0.00 in
21:19 91.1 °F 68.1 °F 29.68 in NW 2.3 mph   47 % 0.00 in
21:24 91.1 °F 68.1 °F 29.68 in Calm     47 % 0.00 in
21:29 91.0 °F 68.0 °F 29.69 in Calm     47 % 0.00 in
21:34 90.9 °F 67.9 °F 29.69 in Calm     47 % 0.00 in
21:39 90.6 °F 68.2 °F 29.69 in NW 1.2 mph   48 % 0.00 in
21:44 90.3 °F 69.1 °F 29.69 in Calm     50 % 0.00 in
21:49 89.3 °F 68.2 °F 29.69 in NW 1.2 mph 1.2 mph 50 % 0.00 in
21:54 88.4 °F 68.5 °F 29.69 in NW 1.2 mph 1.2 mph 52 % 0.00 in
21:59 87.8 °F 68.5 °F 29.69 in NW 1.2 mph 1.2 mph 53 % 0.00 in
22:04 87.5 °F 68.8 °F 29.69 in Calm     54 % 0.00 in
22:09 87.8 °F 68.0 °F 29.69 in NNW 1.2 mph 1.2 mph 52 % 0.00 in
22:19 88.0 °F 67.6 °F 29.69 in WNW 2.3 mph 2.3 mph 51 % 0.00 in
22:20 88.0 °F 67.6 °F 29.69 in NW 2.3 mph 2.3 mph 51 % 0.00 in
22:25 87.8 °F 68.0 °F 29.69 in NW 2.3 mph 2.3 mph 52 % 0.00 in
22:30 87.2 °F 67.4 °F 29.69 in NW 1.2 mph 1.2 mph 52 % 0.00 in
22:35 86.7 °F 67.5 °F 29.69 in West 1.2 mph 1.2 mph 53 % 0.00 in
22:40 86.3 °F 67.7 °F 29.69 in Calm     54 % 0.00 in
22:45 86.1 °F 67.5 °F 29.70 in NNW 1.2 mph 1.2 mph 54 % 0.00 in
22:56 86.3 °F 67.2 °F 29.70 in Calm     53 % 0.00 in
23:01 86.2 °F 67.6 °F 29.70 in Calm     54 % 0.00 in
23:06 85.9 °F 68.4 °F 29.70 in Calm     56 % 0.00 in
23:16 85.2 °F 67.7 °F 29.70 in Calm     56 % 0.00 in
23:21 84.8 °F 67.9 °F 29.70 in ENE 1.2 mph 1.2 mph 57 % 0.00 in
23:26 84.7 °F 68.3 °F 29.70 in Calm     58 % 0.00 in
23:31 84.2 °F 69.3 °F 29.70 in Calm     61 % 0.00 in
23:36 83.6 °F 68.7 °F 29.70 in Calm     61 % 0.00 in
23:41 83.1 °F 68.3 °F 29.70 in Calm     61 % 0.00 in
23:46 83.2 °F 68.3 °F 29.70 in Calm   0.1 mph 61 % 0.00 in
23:51 83.6 °F 67.8 °F 29.70 in Calm     59 % 0.00 in
23:56 83.8 °F 67.4 °F 29.70 in North 1.2 mph   58 % 0.00 in
Park Place, Exeter, Tulare County, California, USA
Compliments of Weather Underground - 2.75 mb